Startpagina
METAR-TAF:

METAR-TAF

Vliegvelden :

Hagåtña, Guam, Verenigde Staten

breedte: 13-29N, lengte: 144-48E, hoogte: 91 m

Actueel weer

Dit bericht is 13 minuten geleden gemaakt, om 06:54 UTC
Wind 6 kt uit het zuidoosten
Temperatuur 28°C
Vochtigheid 84%
Druk 1011 hPa
Zicht: 16.1 km
Verspreide wolken op 7000 ft

METAR: PGUM 270654Z 13006KT 10SM SCT070 28/25 A2984 RMK AO2 SLP097 T02830250 $

Tijdstip: 17:07 (07:07 UTC)

Verwachting

Dit bericht is 1 uur en het 32 minuten geleden gemaakt, om 05:35 UTC
Verwachting geldig van 27 om 06 UTC tot 28 om 12 UTC
Wind 10 kt uit het oosten
Zicht: 10 km
Verspreide wolken op 1500 ft
Verspreide wolken op 4000 ft
Gebroken wolken op 12000 ft
buien in de omgeving
Tijdelijke
van 27 om 06 UTC tot 27 om 08 UTC
Zicht: 4.8 km
Gebroken wolken op 1500 ft
Geheel bewolkt op 4000 ft
regenbuien

TAF: PGUM 270535Z 2706/2812 10010KT P6SM VCSH SCT015 SCT040 BKN120 TEMPO 2706/2708 3SM SHRA BKN015 OVC040

Waarnemingen en weersverwachtingen van meer dan 4000 vliegvelden (METAR en TAF).

De beschikbare stations zijn de gele en rode punten op de kaart.

Ga met uw muis naar het station om de naam te zien.

Klik dan om waarnemingen en weersverwachtingen te zien.

kaart wijzigen: klik op de groene knoppen met een zwart kruis om in te zoomen, op de groene knop met een streepje om uit te zoomen of op de groene pijlen voor aangrenzende kaarten.


METAR-TAF: